createdAt,value
2018-12-27T00:02:23.561Z,-3.06
2018-12-27T00:13:23.718Z,-2.96
2018-12-27T00:24:23.710Z,-2.57
2018-12-27T00:35:24.472Z,-2.64
2018-12-27T00:46:27.384Z,-2.78
2018-12-27T00:57:27.967Z,-2.77
2018-12-27T01:08:25.951Z,-2.75
2018-12-27T01:19:29.385Z,-2.85
2018-12-27T01:30:29.856Z,-2.83
2018-12-27T01:41:31.004Z,-2.92
2018-12-27T01:52:33.269Z,-2.89
2018-12-27T02:03:32.094Z,-2.71
2018-12-27T02:14:34.622Z,-2.92
2018-12-27T02:25:36.519Z,-2.99
2018-12-27T02:36:24.265Z,-3.04
2018-12-27T02:47:23.158Z,-2.85
2018-12-27T02:58:23.459Z,-2.98
2018-12-27T03:09:27.403Z,-2.91
2018-12-27T03:20:31.852Z,-2.85
2018-12-27T03:31:36.827Z,-3.17
2018-12-27T03:42:50.442Z,-3.01
2018-12-27T03:53:49.294Z,-2.96
2018-12-27T04:04:53.672Z,-2.89
2018-12-27T04:15:53.949Z,-3.07
2018-12-27T04:26:59.450Z,-3.11
2018-12-27T04:37:57.295Z,-2.92
2018-12-27T04:48:55.742Z,-2.80
2018-12-27T04:59:57.286Z,-2.92
2018-12-27T05:11:02.590Z,-2.73
2018-12-27T05:22:07.428Z,-2.78
2018-12-27T05:33:10.522Z,-2.71
2018-12-27T05:44:15.152Z,-2.73
2018-12-27T05:55:16.311Z,-2.77
2018-12-27T06:06:17.098Z,-2.65
2018-12-27T06:17:22.925Z,-2.60
2018-12-27T06:28:23.259Z,-2.39
2018-12-27T06:39:25.769Z,-2.36
2018-12-27T06:50:30.601Z,-2.12
2018-12-27T07:01:34.433Z,-2.27
2018-12-27T07:12:39.068Z,-1.91
2018-12-27T07:23:43.600Z,-1.68
2018-12-27T07:34:46.663Z,-1.41
2018-12-27T07:45:48.067Z,-1.09
2018-12-27T07:56:54.079Z,-0.64
2018-12-27T08:07:56.222Z,-0.28
2018-12-27T08:18:54.804Z,0.03
2018-12-27T08:29:54.129Z,0.42
2018-12-27T08:40:38.882Z,0.72
2018-12-27T08:51:38.634Z,1.04
2018-12-27T09:02:34.240Z,1.47
2018-12-27T09:13:30.226Z,1.92
2018-12-27T09:24:29.761Z,2.31
2018-12-27T09:35:30.361Z,2.81
2018-12-27T09:46:33.841Z,3.61
2018-12-27T09:57:32.175Z,4.15
2018-12-27T10:08:25.293Z,4.43
2018-12-27T10:19:23.958Z,4.73
2018-12-27T10:30:27.876Z,5.31
2018-12-27T10:41:28.588Z,5.92
2018-12-27T10:52:29.740Z,6.15
2018-12-27T11:03:30.623Z,7.67
2018-12-27T11:14:34.215Z,9.45
2018-12-27T11:25:38.504Z,10.13
2018-12-27T11:36:41.881Z,10.81
2018-12-27T11:47:31.702Z,9.56
2018-12-27T11:58:31.386Z,10.34
2018-12-27T12:09:08.824Z,10.53
2018-12-27T12:20:06.248Z,10.29
2018-12-27T12:31:01.779Z,9.92
2018-12-27T12:41:37.382Z,10.00
2018-12-27T12:52:26.045Z,10.81
2018-12-27T13:03:22.523Z,9.65
2018-12-27T13:14:06.815Z,8.90
2018-12-27T13:24:57.210Z,8.43
2018-12-27T13:35:54.724Z,8.11
2018-12-27T13:46:46.358Z,8.04
2018-12-27T13:57:33.904Z,7.90
2018-12-27T14:08:31.337Z,7.63
2018-12-27T14:19:33.358Z,7.63
2018-12-27T14:30:29.531Z,6.27
2018-12-27T14:41:30.737Z,5.56
2018-12-27T14:52:26.916Z,4.88
2018-12-27T15:03:28.630Z,4.00
2018-12-27T15:14:29.398Z,3.32
2018-12-27T15:25:32.583Z,2.95
2018-12-27T15:36:29.668Z,2.71
2018-12-27T15:47:29.394Z,2.60
2018-12-27T15:58:27.427Z,2.31
2018-12-27T16:09:29.782Z,2.01
2018-12-27T16:20:19.283Z,1.44
2018-12-27T16:31:21.285Z,1.25
2018-12-27T16:42:22.055Z,1.18
2018-12-27T16:53:24.823Z,1.11
2018-12-27T17:04:25.141Z,1.12
2018-12-27T17:15:23.978Z,0.89
2018-12-27T17:26:24.397Z,0.62
2018-12-27T17:37:27.915Z,0.68
2018-12-27T17:48:25.642Z,0.56
2018-12-27T17:59:24.229Z,0.36
2018-12-27T18:10:24.210Z,0.32
2018-12-27T18:21:27.476Z,0.28
2018-12-27T18:32:28.243Z,0.28
2018-12-27T18:43:28.925Z,0.43
2018-12-27T18:54:26.503Z,0.49
2018-12-27T19:05:11.577Z,0.56
2018-12-27T19:16:09.147Z,0.61
2018-12-27T19:27:04.428Z,0.68
2018-12-27T19:37:57.598Z,0.43
2018-12-27T19:48:44.569Z,0.34
2018-12-27T19:59:41.780Z,0.32
2018-12-27T20:10:43.964Z,0.13
2018-12-27T20:21:40.235Z,0.11
2018-12-27T20:32:35.977Z,0.01
2018-12-27T20:43:35.540Z,-0.11
2018-12-27T20:54:40.177Z,0.01
2018-12-27T21:05:44.414Z,0.04
2018-12-27T21:16:44.826Z,0.03
2018-12-27T21:27:32.241Z,0.21
2018-12-27T21:38:21.331Z,0.32
2018-12-27T21:49:18.742Z,0.47
2018-12-27T22:00:19.059Z,0.61
2018-12-27T22:11:13.668Z,0.71
2018-12-27T22:21:58.627Z,0.74
2018-12-27T22:32:57.652Z,0.74
2018-12-27T22:44:02.315Z,0.80
2018-12-27T22:55:03.851Z,0.75
2018-12-27T23:06:03.837Z,0.82
2018-12-27T23:17:04.152Z,0.93
2018-12-27T23:28:06.114Z,0.86
2018-12-27T23:39:06.723Z,0.87
2018-12-27T23:50:03.682Z,0.90
